Buoy 46611

sailwx.info

Track history (hours):
 
Tides and Currents Weather Stations Pressure Air Temp Water Temp Dewpoint Dewpoint Depression Visibility Wind Speed Wind Dir Waves Ship Positions

Drifting buoy 46611

Last reported at 2014-Nov-23 07:00 UTC. Time now 2014-Nov-23 08:44 UTC.
Position N 52°04' W 137°17'.

Barometer 1003.0 mb
Water temperature 10.1 ° C

Date/timePositionNaut miles runAvg speedWind from/ knotsBaromVisibWave heightAir tempDewpointWater temp
2014-Nov-23 07:00N 52°04' W 137°17'1 1.4 1003.0 10.1
2014-Nov-23 06:00N 52°05' W 137°16'2 1.8 1002.1 10.1
2014-Nov-23 05:00N 52°05' W 137°19'2 1.8 1001.2 10.1
2014-Nov-23 04:00N 52°05' W 137°22'0 0.0 1000.2 10.1
2014-Nov-23 03:00N 52°05' W 137°22'1 1.3 999.6 10.1
2014-Nov-23 02:00N 52°04' W 137°23'1 0.6 998.8 10.1
2014-Nov-23 00:00N 52°04' W 137°22'2 1.9 997.7 10.1
2014-Nov-22 23:00N 52°02' W 137°23'1 0.7 997.8 10.1
2014-Nov-22 22:00N 52°02' W 137°22'0 0.0 997.9 10.1
2014-Nov-22 21:00N 52°02' W 137°22'1 1.0 998.6 10.1
2014-Nov-22 20:00N 52°01' W 137°21'1 0.6 999.0 10.1
2014-Nov-22 19:00N 52°02' W 137°21'0 0.2 999.3 10.1
2014-Nov-22 18:00N 52°02' W 137°21'0 0.0 999.0 10.1
2014-Nov-22 16:00N 52°02' W 137°21'3 1.3 997.7 10.1
2014-Nov-22 14:00N 52°04' W 137°24'0 0.4 996.9 10.1
2014-Nov-22 13:00N 52°04' W 137°25'1 1.5 996.5 10.1
2014-Nov-22 12:00N 52°04' W 137°27'2 2.4 995.9 10.1
2014-Nov-22 11:00N 52°01' W 137°28'1 0.3 995.2 10.1
2014-Nov-22 07:00N 52°00' W 137°28'1 1.3 993.2 10.1
2014-Nov-22 06:00N 52°01' W 137°26'0 0.0 993.3 10.1
2014-Nov-22 05:00N 52°01' W 137°26'1 0.6 992.8 10.1
2014-Nov-22 04:00N 52°00' W 137°26'1 1.3 992.9 10.1
2014-Nov-22 03:00N 52°01' W 137°26'1 0.7 992.9 10.1
2014-Nov-22 02:00N 52°02' W 137°26'1 0.7 992.7 10.1
2014-Nov-22 01:00N 52°02' W 137°25'1 1.5 992.6 10.1
2014-Nov-22 00:00N 52°02' W 137°28'1 1.0 992.3 10.1
2014-Nov-21 23:00N 52°03' W 137°29'2 0.8 992.3 10.1
2014-Nov-21 21:00N 52°02' W 137°31'2 1.6 992.4 10.1
2014-Nov-21 20:00N 52°02' W 137°34'0 0.0 992.3 10.1
2014-Nov-21 19:00N 52°02' W 137°34'1 0.7 992.1 10.1
2014-Nov-21 17:00N 52°01' W 137°32'1 0.7 991.7 10.1
2014-Nov-21 16:00N 52°00' W 137°33'1 0.7 991.6 10.1
2014-Nov-21 15:00N 52°00' W 137°32'1 0.7 991.6 10.1
2014-Nov-21 14:00N 52°01' W 137°31'1 1.4 991.5 10.1
2014-Nov-21 13:00N 52°02' W 137°32'0 0.0 991.4 10.1
2014-Nov-21 12:00N 52°02' W 137°32'0 0.0 991.2 10.1
2014-Nov-21 11:00N 52°02' W 137°32'6 2.1 990.8 10.2
2014-Nov-21 08:00N 52°04' W 137°42'0 0.0 989.4 10.2
2014-Nov-21 07:00N 52°04' W 137°42'0 0.0 988.8 10.2
2014-Nov-21 06:00N 52°04' W 137°42'2 1.6 987.9 10.2
2014-Nov-21 05:00N 52°05' W 137°40'2 1.6 986.8 10.2
2014-Nov-21 04:00N 52°04' W 137°38'0 0.4 985.5 10.2
2014-Nov-21 03:00N 52°04' W 137°38'2 2.1 986.9 10.2
2014-Nov-21 02:00N 52°02' W 137°40'2 1.6 988.9 10.2
2014-Nov-21 01:00N 52°02' W 137°38'1 0.7 990.9 10.2
2014-Nov-21 00:00N 52°02' W 137°38'1 1.1 992.9 10.2
2014-Nov-20 23:00N 52°02' W 137°37'2 2.2 994.9 10.2
2014-Nov-20 22:00N 52°02' W 137°40'3 1.3 996.6 10.2
2014-Nov-20 20:00N 52°01' W 137°36'1 0.7 999.5 10.2
2014-Nov-20 19:00N 52°02' W 137°37'0 0.4 1000.9 10.2
2014-Nov-20 18:00N 52°02' W 137°36'1 0.7 1002.1 10.2
2014-Nov-20 17:00N 52°02' W 137°37'1 0.8 1002.5 10.2
2014-Nov-20 16:00N 52°02' W 137°37'0 0.4 1003.4 10.2
2014-Nov-20 15:00N 52°02' W 137°36'0 0.0 1004.7 10.2
2014-Nov-20 14:00N 52°02' W 137°36'1 1.1 1005.5 10.2
2014-Nov-20 13:00N 52°02' W 137°38'2 0.8 1006.3 10.2
2014-Nov-20 11:00N 52°03' W 137°35'0 0.0 1007.9 10.2
2014-Nov-20 10:00N 52°03' W 137°35'1 0.4 1007.8 10.2
2014-Nov-20 07:00N 52°03' W 137°34'1 0.7 1009.2 10.2
2014-Nov-20 06:00N 52°04' W 137°34'2 2.1 1009.6 10.2
2014-Nov-20 05:00N 52°05' W 137°32'0 0.0 1010.0 10.2
2014-Nov-20 04:00N 52°05' W 137°32'1 0.6 1010.2 10.2
2014-Nov-20 03:00N 52°06' W 137°32'0 0.0 1010.6 10.2
2014-Nov-20 02:00N 52°06' W 137°32'2 1.6 1010.7 10.2
2014-Nov-20 01:00N 52°07' W 137°34'0 0.0 1010.6 10.2
2014-Nov-20 00:00N 52°07' W 137°34'0 0.4 1010.9 10.3
2014-Nov-19 23:00N 52°07' W 137°35'0 0.0 1010.9 10.3
2014-Nov-19 22:00N 52°07' W 137°35'0 0.0 1011.3 10.3
2014-Nov-19 21:00N 52°07' W 137°35'1 0.7 1011.6 10.2
2014-Nov-19 20:00N 52°07' W 137°34'0 0.0 1011.9 10.2
2014-Nov-19 19:00N 52°07' W 137°34'0 0.0 1012.3 10.3
2014-Nov-19 18:00N 52°07' W 137°34'2 1.6 1012.3 10.2
2014-Nov-19 17:00N 52°08' W 137°32'0 0.4 1012.5 10.3
2014-Nov-19 16:00N 52°08' W 137°31'0 0.4 1012.6 10.3
2014-Nov-19 15:00N 52°08' W 137°31'2 1.8 1012.9 10.3
2014-Nov-19 14:00N 52°10' W 137°30'3 3.0 1013.4 10.3
2014-Nov-19 13:00N 52°13' W 137°33'0 0.0 1013.4 10.3
2014-Nov-19 12:00N 52°13' W 137°33'0 0.3 1013.8 10.3
2014-Nov-19 11:00N 52°12' W 137°33'0 0.3 1013.8 10.3
2014-Nov-19 10:00N 52°12' W 137°33'1 0.6 1013.7 10.3
2014-Nov-19 09:00N 52°13' W 137°33'1 0.6 1013.8 10.3
2014-Nov-19 08:00N 52°12' W 137°33'1 0.5 1013.2 10.3
2014-Nov-19 06:00N 52°11' W 137°34'0 0.4 1012.1 10.3
2014-Nov-19 05:00N 52°11' W 137°34'1 1.3 1011.4 10.3
2014-Nov-19 04:00N 52°12' W 137°32'0 0.0 1011.0 10.3
2014-Nov-19 03:00N 52°12' W 137°32'1 0.7 1010.7 10.3
2014-Nov-19 02:00N 52°13' W 137°31'1 1.3 1009.9 10.4
2014-Nov-19 01:00N 52°14' W 137°32'1 0.6 1008.7 10.4
2014-Nov-19 00:00N 52°14' W 137°32'1 0.7 1008.0 10.4
2014-Nov-18 23:00N 52°15' W 137°32'1 1.3 1006.8 10.4
2014-Nov-18 22:00N 52°16' W 137°34'1 0.9 1006.1 10.4
2014-Nov-18 21:00N 52°16' W 137°33'2 2.2 1005.5 10.4
2014-Nov-18 20:00N 52°16' W 137°37'1 1.5 1004.5 10.4
2014-Nov-18 19:00N 52°16' W 137°39'2 1.8 1003.3 10.3
2014-Nov-18 18:00N 52°14' W 137°39'0 0.0 1002.0 10.3
2014-Nov-18 17:00N 52°14' W 137°39'1 0.6 1000.9 10.4
2014-Nov-18 16:00N 52°14' W 137°39'1 0.7 1000.1 10.4
2014-Nov-18 15:00N 52°14' W 137°38'0 0.4 999.7 10.3
2014-Nov-18 14:00N 52°13' W 137°39'2 2.5 999.7 10.3
2014-Nov-18 13:00N 52°12' W 137°35'2 1.9 999.8 10.3
2014-Nov-18 12:00N 52°13' W 137°38'0 0.0 999.9 10.3
2014-Nov-18 11:00N 52°13' W 137°38'2 1.6 999.9 10.3
2014-Nov-18 10:00N 52°11' W 137°37'0 0.0 1000.4 10.3
2014-Nov-18 08:00N 52°11' W 137°37'0 0.1 1001.4 10.3
2014-Nov-18 07:00N 52°11' W 137°37'0 0.3 1002.3 10.3
2014-Nov-18 06:00N 52°11' W 137°37'1 1.3 1003.5 10.3
2014-Nov-18 05:00N 52°10' W 137°37'0 0.0 1004.4 10.3
2014-Nov-18 04:00N 52°10' W 137°37'1 1.3 1005.4 10.3
2014-Nov-18 03:00N 52°10' W 137°35'1 0.6 1006.9 10.3
2014-Nov-18 02:00N 52°09' W 137°34'0 0.1 1008.3 10.3
2014-Nov-18 01:00N 52°09' W 137°34'1 1.3 1009.7 10.3
2014-Nov-18 00:00N 52°08' W 137°34'1 0.7 1011.1 10.3
2014-Nov-17 23:00N 52°07' W 137°33'0 0.0 1012.3 10.3
2014-Nov-17 22:00N 52°07' W 137°33'2 1.9 1013.3 10.3
2014-Nov-17 21:00N 52°07' W 137°30'0 0.0 1014.7 10.3
2014-Nov-17 20:00N 52°07' W 137°30'1 0.7 1015.9 10.3
2014-Nov-17 19:00N 52°07' W 137°29'2 1.8 1017.0 10.3
2014-Nov-17 18:00N 52°07' W 137°26'0 0.1 1017.9 10.4
2014-Nov-17 16:00N 52°07' W 137°26'1 0.6 1018.9 10.4
2014-Nov-17 15:00N 52°07' W 137°26'1 0.6 1019.9 10.4
2014-Nov-17 14:00N 52°08' W 137°26'1 1.4 1020.5 10.4
2014-Nov-17 13:00N 52°07' W 137°25'1 1.1 1020.9 10.4
2014-Nov-17 12:00N 52°07' W 137°27'2 1.2 1021.3 10.4
2014-Nov-17 10:00N 52°05' W 137°25'0 0.0 1021.9 10.3
2014-Nov-17 07:00N 52°05' W 137°25'0 0.4 1023.3 10.2
2014-Nov-17 06:00N 52°05' W 137°25'1 1.0 1023.0 10.2
2014-Nov-17 05:00N 52°04' W 137°24'0 0.2 1023.4 10.2
2014-Nov-17 04:00N 52°04' W 137°24'2 1.7 1023.3 10.2
2014-Nov-17 03:00N 52°05' W 137°22'0 0.0 1023.4 10.2
2014-Nov-17 02:00N 52°05' W 137°22'1 1.0 1023.2 10.2
2014-Nov-17 01:00N 52°06' W 137°23'0 0.0 1023.0 10.2
2014-Nov-17 00:00N 52°06' W 137°23'0 0.4 1023.1 10.2
2014-Nov-16 23:00N 52°06' W 137°23'1 1.2 1023.2 10.2
2014-Nov-16 22:00N 52°05' W 137°25'0 0.2 1023.0 10.2
2014-Nov-16 21:00N 52°05' W 137°24'1 0.6 1023.0 10.2
2014-Nov-16 20:00N 52°05' W 137°25'1 0.7 1022.7 10.2
2014-Nov-16 19:00N 52°05' W 137°26'2 1.9 1022.6 10.2
2014-Nov-16 18:00N 52°04' W 137°24'0 0.0 1022.2 10.2
2014-Nov-16 17:00N 52°04' W 137°24'1 0.7 1021.3 10.2
2014-Nov-16 15:00N 52°04' W 137°22'1 1.3 1020.2 10.2
2014-Nov-16 14:00N 52°03' W 137°23'0 0.0 1019.7 10.3
2014-Nov-16 13:00N 52°03' W 137°23'0 0.0 1019.6 10.3
2014-Nov-16 12:00N 52°03' W 137°23'0 0.2 1019.3 10.3
2014-Nov-16 11:00N 52°03' W 137°23'3 2.6 1019.0 10.4
2014-Nov-16 10:00N 52°01' W 137°22'1 0.2 1018.8 10.4
2014-Nov-16 07:00N 52°01' W 137°22'1 0.6 1017.7 10.4
2014-Nov-16 06:00N 52°01' W 137°22'0 0.0 1017.2 10.4
2014-Nov-16 05:00N 52°01' W 137°22'3 2.8 1016.7 10.4
2014-Nov-16 04:00N 51°58' W 137°19'0 0.0 1016.4 10.4
2014-Nov-16 02:00N 51°58' W 137°19'2 1.8 1016.4 10.4
2014-Nov-16 01:00N 51°56' W 137°19'1 1.4 1016.8 10.4
2014-Nov-16 00:00N 51°55' W 137°18'1 0.4 1017.2 10.4
2014-Nov-15 22:00N 51°56' W 137°17'2 0.9 1017.9 10.4
2014-Nov-15 20:00N 51°54' W 137°17'4 4.1 1018.6 10.4
2014-Nov-15 19:00N 51°52' W 137°12'0 0.0 1018.4 10.4
2014-Nov-15 18:00N 51°52' W 137°12'0 0.0 1018.2 10.4
2014-Nov-15 17:00N 51°52' W 137°12'0 0.0 1018.5 10.4
2014-Nov-15 16:00N 51°52' W 137°12'0 0.0 1018.0 10.4
2014-Nov-15 15:00N 51°52' W 137°12'0 0.4 1017.8 10.4
2014-Nov-15 14:00N 51°52' W 137°11'1 0.6 1018.1 10.4
2014-Nov-15 13:00N 51°51' W 137°11'0 0.0 1018.0 10.4
2014-Nov-15 12:00N 51°51' W 137°11'2 1.6 1017.6 10.5
2014-Nov-15 11:00N 51°50' W 137°13'5 4.6 1017.8 10.5
2014-Nov-15 10:00N 51°46' W 137°10'0 0.0 1017.6 10.6
2014-Nov-15 07:00N 51°46' W 137°10'1 1.0 1017.1 10.6
2014-Nov-15 06:00N 51°45' W 137°09'0 0.0 1017.2 10.7
2014-Nov-15 05:00N 51°45' W 137°09'2 2.3 1016.9 10.7
2014-Nov-15 04:00N 51°44' W 137°05'0 0.0 1017.1 10.7
2014-Nov-15 03:00N 51°44' W 137°05'0 0.4 1017.0 10.8
2014-Nov-15 02:00N 51°44' W 137°06'1 0.6 1017.0 10.9
2014-Nov-15 00:00N 51°43' W 137°06'0 0.3 1017.5 11.1
2014-Nov-14 23:00N 51°43' W 137°06'1 1.0 1017.8 11.1
2014-Nov-14 22:00N 51°42' W 137°07'0 0.0 1018.2 11.1
2014-Nov-14 21:00N 51°42' W 137°07'2 2.2 1018.5 11.1
2014-Nov-14 20:00N 51°41' W 137°04'1 1.0 1018.5 11.1
2014-Nov-14 19:00N 51°41' W 137°05'2 2.1 1018.3 11.1
2014-Nov-14 18:00N 51°40' W 137°03'0 0.2 1017.7 11.1
2014-Nov-14 16:00N 51°40' W 137°02'0 0.2 1017.3 11.1
2014-Nov-14 15:00N 51°39' W 137°02'1 0.9 1017.2 11.1
2014-Nov-14 14:00N 51°39' W 137°01'1 0.7 1017.4 11.2
2014-Nov-14 13:00N 51°38' W 137°01'1 1.0 1017.3 11.1
2014-Nov-14 12:00N 51°39' W 137°02'2 1.9 1017.2 11.1
2014-Nov-14 11:00N 51°37' W 137°01'2 1.8 1017.0 11.1
2014-Nov-14 10:00N 51°39' W 137°01'2 0.9 1016.6 11.0
2014-Nov-14 08:00N 51°37' W 137°01'1 0.6 1016.3 11.0
2014-Nov-14 06:00N 51°37' W 136°59'0 0.1 1015.6 11.0
2014-Nov-14 05:00N 51°37' W 136°59'1 0.7 1015.0 11.0
2014-Nov-14 04:00N 51°36' W 136°58'1 0.7 1014.5 11.0
2014-Nov-14 03:00N 51°35' W 136°59'1 1.3 1014.1 11.0
2014-Nov-14 02:00N 51°35' W 136°57'1 0.3 1013.9 11.1
2014-Nov-14 00:00N 51°34' W 136°57'1 0.5 1013.4 11.1
2014-Nov-13 22:00N 51°34' W 136°55'0 0.0 1013.0 11.0
2014-Nov-13 21:00N 51°34' W 136°55'2 1.6 1012.9 11.0
2014-Nov-13 20:00N 51°32' W 136°53'1 0.6 1013.1 11.0
2014-Nov-13 19:00N 51°32' W 136°53'1 1.1 1012.8 11.0
2014-Nov-13 18:00N 51°32' W 136°52'1 0.6 1012.4 11.0
2014-Nov-13 16:00N 51°31' W 136°50'0 0.4 1011.9 11.2
2014-Nov-13 15:00N 51°31' W 136°49'1 0.7 1011.8 11.3
2014-Nov-13 14:00N 51°31' W 136°50'1 0.7 1011.9 11.3
2014-Nov-13 13:00N 51°30' W 136°49'1 0.7 1012.1 11.3
2014-Nov-13 12:00N 51°30' W 136°48'3 3.4 1012.4 11.3
2014-Nov-13 11:00N 51°27' W 136°46'0 0.0 1012.4 11.2
2014-Nov-13 08:00N 51°27' W 136°46'   1012.8 11.1
Track history (hours):
 
Tides and Currents Weather Stations Pressure Air Temp Water Temp Dewpoint Dewpoint Depression Visibility Wind Speed Wind Dir Waves Ship Positions

Drifting buoy 46611

Last reported at 2014-Nov-23 07:00 UTC. Time now 2014-Nov-23 08:44 UTC.
Position N 52°04' W 137°17'.

Barometer 1003.0 mb
Water temperature 10.1 ° C

Date/timePositionNaut miles runAvg speedWind from/ knotsBaromVisibWave heightAir tempDewpointWater temp
2014-Nov-23 07:00N 52°04' W 137°17'1 1.4 1003.0 10.1
2014-Nov-23 06:00N 52°05' W 137°16'2 1.8 1002.1 10.1
2014-Nov-23 05:00N 52°05' W 137°19'2 1.8 1001.2 10.1
2014-Nov-23 04:00N 52°05' W 137°22'0 0.0 1000.2 10.1
2014-Nov-23 03:00N 52°05' W 137°22'1 1.3 999.6 10.1
2014-Nov-23 02:00N 52°04' W 137°23'1 0.6 998.8 10.1
2014-Nov-23 00:00N 52°04' W 137°22'2 1.9 997.7 10.1
2014-Nov-22 23:00N 52°02' W 137°23'1 0.7 997.8 10.1
2014-Nov-22 22:00N 52°02' W 137°22'0 0.0 997.9 10.1
2014-Nov-22 21:00N 52°02' W 137°22'1 1.0 998.6 10.1
2014-Nov-22 20:00N 52°01' W 137°21'1 0.6 999.0 10.1
2014-Nov-22 19:00N 52°02' W 137°21'0 0.2 999.3 10.1
2014-Nov-22 18:00N 52°02' W 137°21'0 0.0 999.0 10.1
2014-Nov-22 16:00N 52°02' W 137°21'3 1.3 997.7 10.1
2014-Nov-22 14:00N 52°04' W 137°24'0 0.4 996.9 10.1
2014-Nov-22 13:00N 52°04' W 137°25'1 1.5 996.5 10.1
2014-Nov-22 12:00N 52°04' W 137°27'2 2.4 995.9 10.1
2014-Nov-22 11:00N 52°01' W 137°28'1 0.3 995.2 10.1
2014-Nov-22 07:00N 52°00' W 137°28'1 1.3 993.2 10.1
2014-Nov-22 06:00N 52°01' W 137°26'0 0.0 993.3 10.1
2014-Nov-22 05:00N 52°01' W 137°26'1 0.6 992.8 10.1
2014-Nov-22 04:00N 52°00' W 137°26'1 1.3 992.9 10.1
2014-Nov-22 03:00N 52°01' W 137°26'1 0.7 992.9 10.1
2014-Nov-22 02:00N 52°02' W 137°26'1 0.7 992.7 10.1
2014-Nov-22 01:00N 52°02' W 137°25'1 1.5 992.6 10.1
2014-Nov-22 00:00N 52°02' W 137°28'1 1.0 992.3 10.1
2014-Nov-21 23:00N 52°03' W 137°29'2 0.8 992.3 10.1
2014-Nov-21 21:00N 52°02' W 137°31'2 1.6 992.4 10.1
2014-Nov-21 20:00N 52°02' W 137°34'0 0.0 992.3 10.1
2014-Nov-21 19:00N 52°02' W 137°34'1 0.7 992.1 10.1
2014-Nov-21 17:00N 52°01' W 137°32'1 0.7 991.7 10.1
2014-Nov-21 16:00N 52°00' W 137°33'1 0.7 991.6 10.1
2014-Nov-21 15:00N 52°00' W 137°32'1 0.7 991.6 10.1
2014-Nov-21 14:00N 52°01' W 137°31'1 1.4 991.5 10.1
2014-Nov-21 13:00N 52°02' W 137°32'0 0.0 991.4 10.1
2014-Nov-21 12:00N 52°02' W 137°32'0 0.0 991.2 10.1
2014-Nov-21 11:00N 52°02' W 137°32'6 2.1 990.8 10.2
2014-Nov-21 08:00N 52°04' W 137°42'0 0.0 989.4 10.2
2014-Nov-21 07:00N 52°04' W 137°42'0 0.0 988.8 10.2
2014-Nov-21 06:00N 52°04' W 137°42'2 1.6 987.9 10.2
2014-Nov-21 05:00N 52°05' W 137°40'2 1.6 986.8 10.2
2014-Nov-21 04:00N 52°04' W 137°38'0 0.4 985.5 10.2
2014-Nov-21 03:00N 52°04' W 137°38'2 2.1 986.9 10.2
2014-Nov-21 02:00N 52°02' W 137°40'2 1.6 988.9 10.2
2014-Nov-21 01:00N 52°02' W 137°38'1 0.7 990.9 10.2
2014-Nov-21 00:00N 52°02' W 137°38'1 1.1 992.9 10.2
2014-Nov-20 23:00N 52°02' W 137°37'2 2.2 994.9 10.2
2014-Nov-20 22:00N 52°02' W 137°40'3 1.3 996.6 10.2
2014-Nov-20 20:00N 52°01' W 137°36'1 0.7 999.5 10.2
2014-Nov-20 19:00N 52°02' W 137°37'0 0.4 1000.9 10.2
2014-Nov-20 18:00N 52°02' W 137°36'1 0.7 1002.1 10.2
2014-Nov-20 17:00N 52°02' W 137°37'1 0.8 1002.5 10.2
2014-Nov-20 16:00N 52°02' W 137°37'0 0.4 1003.4 10.2
2014-Nov-20 15:00N 52°02' W 137°36'0 0.0 1004.7 10.2
2014-Nov-20 14:00N 52°02' W 137°36'1 1.1 1005.5 10.2
2014-Nov-20 13:00N 52°02' W 137°38'2 0.8 1006.3 10.2
2014-Nov-20 11:00N 52°03' W 137°35'0 0.0 1007.9 10.2
2014-Nov-20 10:00N 52°03' W 137°35'1 0.4 1007.8 10.2
2014-Nov-20 07:00N 52°03' W 137°34'1 0.7 1009.2 10.2
2014-Nov-20 06:00N 52°04' W 137°34'2 2.1 1009.6 10.2
2014-Nov-20 05:00N 52°05' W 137°32'0 0.0 1010.0 10.2
2014-Nov-20 04:00N 52°05' W 137°32'1 0.6 1010.2 10.2
2014-Nov-20 03:00N 52°06' W 137°32'0 0.0 1010.6 10.2
2014-Nov-20 02:00N 52°06' W 137°32'2 1.6 1010.7 10.2
2014-Nov-20 01:00N 52°07' W 137°34'0 0.0 1010.6 10.2
2014-Nov-20 00:00N 52°07' W 137°34'0 0.4 1010.9 10.3
2014-Nov-19 23:00N 52°07' W 137°35'0 0.0 1010.9 10.3
2014-Nov-19 22:00N 52°07' W 137°35'0 0.0 1011.3 10.3
2014-Nov-19 21:00N 52°07' W 137°35'1 0.7 1011.6 10.2
2014-Nov-19 20:00N 52°07' W 137°34'0 0.0 1011.9 10.2
2014-Nov-19 19:00N 52°07' W 137°34'0 0.0 1012.3 10.3
2014-Nov-19 18:00N 52°07' W 137°34'2 1.6 1012.3 10.2
2014-Nov-19 17:00N 52°08' W 137°32'0 0.4 1012.5 10.3
2014-Nov-19 16:00N 52°08' W 137°31'0 0.4 1012.6 10.3
2014-Nov-19 15:00N 52°08' W 137°31'2 1.8 1012.9 10.3
2014-Nov-19 14:00N 52°10' W 137°30'3 3.0 1013.4 10.3
2014-Nov-19 13:00N 52°13' W 137°33'0 0.0 1013.4 10.3
2014-Nov-19 12:00N 52°13' W 137°33'0 0.3 1013.8 10.3
2014-Nov-19 11:00N 52°12' W 137°33'0 0.3 1013.8 10.3
2014-Nov-19 10:00N 52°12' W 137°33'1 0.6 1013.7 10.3
2014-Nov-19 09:00N 52°13' W 137°33'1 0.6 1013.8 10.3
2014-Nov-19 08:00N 52°12' W 137°33'1 0.5 1013.2 10.3
2014-Nov-19 06:00N 52°11' W 137°34'0 0.4 1012.1 10.3
2014-Nov-19 05:00N 52°11' W 137°34'1 1.3 1011.4 10.3
2014-Nov-19 04:00N 52°12' W 137°32'0 0.0 1011.0 10.3
2014-Nov-19 03:00N 52°12' W 137°32'1 0.7 1010.7 10.3
2014-Nov-19 02:00N 52°13' W 137°31'1 1.3 1009.9 10.4
2014-Nov-19 01:00N 52°14' W 137°32'1 0.6 1008.7 10.4
2014-Nov-19 00:00N 52°14' W 137°32'1 0.7 1008.0 10.4
2014-Nov-18 23:00N 52°15' W 137°32'1 1.3 1006.8 10.4
2014-Nov-18 22:00N 52°16' W 137°34'1 0.9 1006.1 10.4
2014-Nov-18 21:00N 52°16' W 137°33'2 2.2 1005.5 10.4
2014-Nov-18 20:00N 52°16' W 137°37'1 1.5 1004.5 10.4
2014-Nov-18 19:00N 52°16' W 137°39'2 1.8 1003.3 10.3
2014-Nov-18 18:00N 52°14' W 137°39'0 0.0 1002.0 10.3
2014-Nov-18 17:00N 52°14' W 137°39'1 0.6 1000.9 10.4
2014-Nov-18 16:00N 52°14' W 137°39'1 0.7 1000.1 10.4
2014-Nov-18 15:00N 52°14' W 137°38'0 0.4 999.7 10.3
2014-Nov-18 14:00N 52°13' W 137°39'2 2.5 999.7 10.3
2014-Nov-18 13:00N 52°12' W 137°35'2 1.9 999.8 10.3
2014-Nov-18 12:00N 52°13' W 137°38'0 0.0 999.9 10.3
2014-Nov-18 11:00N 52°13' W 137°38'2 1.6 999.9 10.3
2014-Nov-18 10:00N 52°11' W 137°37'0 0.0 1000.4 10.3
2014-Nov-18 08:00N 52°11' W 137°37'0 0.1 1001.4 10.3
2014-Nov-18 07:00N 52°11' W 137°37'0 0.3 1002.3 10.3
2014-Nov-18 06:00N 52°11' W 137°37'1 1.3 1003.5 10.3
2014-Nov-18 05:00N 52°10' W 137°37'0 0.0 1004.4 10.3
2014-Nov-18 04:00N 52°10' W 137°37'1 1.3 1005.4 10.3
2014-Nov-18 03:00N 52°10' W 137°35'1 0.6 1006.9 10.3
2014-Nov-18 02:00N 52°09' W 137°34'0 0.1 1008.3 10.3
2014-Nov-18 01:00N 52°09' W 137°34'1 1.3 1009.7 10.3
2014-Nov-18 00:00N 52°08' W 137°34'1 0.7 1011.1 10.3
2014-Nov-17 23:00N 52°07' W 137°33'0 0.0 1012.3 10.3
2014-Nov-17 22:00N 52°07' W 137°33'2 1.9 1013.3 10.3
2014-Nov-17 21:00N 52°07' W 137°30'0 0.0 1014.7 10.3
2014-Nov-17 20:00N 52°07' W 137°30'1 0.7 1015.9 10.3
2014-Nov-17 19:00N 52°07' W 137°29'2 1.8 1017.0 10.3
2014-Nov-17 18:00N 52°07' W 137°26'0 0.1 1017.9 10.4
2014-Nov-17 16:00N 52°07' W 137°26'1 0.6 1018.9 10.4
2014-Nov-17 15:00N 52°07' W 137°26'1 0.6 1019.9 10.4
2014-Nov-17 14:00N 52°08' W 137°26'1 1.4 1020.5 10.4
2014-Nov-17 13:00N 52°07' W 137°25'1 1.1 1020.9 10.4
2014-Nov-17 12:00N 52°07' W 137°27'2 1.2 1021.3 10.4
2014-Nov-17 10:00N 52°05' W 137°25'0 0.0 1021.9 10.3
2014-Nov-17 07:00N 52°05' W 137°25'0 0.4 1023.3 10.2
2014-Nov-17 06:00N 52°05' W 137°25'1 1.0 1023.0 10.2
2014-Nov-17 05:00N 52°04' W 137°24'0 0.2 1023.4 10.2
2014-Nov-17 04:00N 52°04' W 137°24'2 1.7 1023.3 10.2
2014-Nov-17 03:00N 52°05' W 137°22'0 0.0 1023.4 10.2
2014-Nov-17 02:00N 52°05' W 137°22'1 1.0 1023.2 10.2
2014-Nov-17 01:00N 52°06' W 137°23'0 0.0 1023.0 10.2
2014-Nov-17 00:00N 52°06' W 137°23'0 0.4 1023.1 10.2
2014-Nov-16 23:00N 52°06' W 137°23'1 1.2 1023.2 10.2
2014-Nov-16 22:00N 52°05' W 137°25'0 0.2 1023.0 10.2
2014-Nov-16 21:00N 52°05' W 137°24'1 0.6 1023.0 10.2
2014-Nov-16 20:00N 52°05' W 137°25'1 0.7 1022.7 10.2
2014-Nov-16 19:00N 52°05' W 137°26'2 1.9 1022.6 10.2
2014-Nov-16 18:00N 52°04' W 137°24'0 0.0 1022.2 10.2
2014-Nov-16 17:00N 52°04' W 137°24'1 0.7 1021.3 10.2
2014-Nov-16 15:00N 52°04' W 137°22'1 1.3 1020.2 10.2
2014-Nov-16 14:00N 52°03' W 137°23'0 0.0 1019.7 10.3
2014-Nov-16 13:00N 52°03' W 137°23'0 0.0 1019.6 10.3
2014-Nov-16 12:00N 52°03' W 137°23'0 0.2 1019.3 10.3
2014-Nov-16 11:00N 52°03' W 137°23'3 2.6 1019.0 10.4
2014-Nov-16 10:00N 52°01' W 137°22'1 0.2 1018.8 10.4
2014-Nov-16 07:00N 52°01' W 137°22'1 0.6 1017.7 10.4
2014-Nov-16 06:00N 52°01' W 137°22'0 0.0 1017.2 10.4
2014-Nov-16 05:00N 52°01' W 137°22'3 2.8 1016.7 10.4
2014-Nov-16 04:00N 51°58' W 137°19'0 0.0 1016.4 10.4
2014-Nov-16 02:00N 51°58' W 137°19'2 1.8 1016.4 10.4
2014-Nov-16 01:00N 51°56' W 137°19'1 1.4 1016.8 10.4
2014-Nov-16 00:00N 51°55' W 137°18'1 0.4 1017.2 10.4
2014-Nov-15 22:00N 51°56' W 137°17'2 0.9 1017.9 10.4
2014-Nov-15 20:00N 51°54' W 137°17'4 4.1 1018.6 10.4
2014-Nov-15 19:00N 51°52' W 137°12'0 0.0 1018.4 10.4
2014-Nov-15 18:00N 51°52' W 137°12'0 0.0 1018.2 10.4
2014-Nov-15 17:00N 51°52' W 137°12'0 0.0 1018.5 10.4
2014-Nov-15 16:00N 51°52' W 137°12'0 0.0 1018.0 10.4
2014-Nov-15 15:00N 51°52' W 137°12'0 0.4 1017.8 10.4
2014-Nov-15 14:00N 51°52' W 137°11'1 0.6 1018.1 10.4
2014-Nov-15 13:00N 51°51' W 137°11'0 0.0 1018.0 10.4
2014-Nov-15 12:00N 51°51' W 137°11'2 1.6 1017.6 10.5
2014-Nov-15 11:00N 51°50' W 137°13'5 4.6 1017.8 10.5
2014-Nov-15 10:00N 51°46' W 137°10'0 0.0 1017.6 10.6
2014-Nov-15 07:00N 51°46' W 137°10'1 1.0 1017.1 10.6
2014-Nov-15 06:00N 51°45' W 137°09'0 0.0 1017.2 10.7
2014-Nov-15 05:00N 51°45' W 137°09'2 2.3 1016.9 10.7
2014-Nov-15 04:00N 51°44' W 137°05'0 0.0 1017.1 10.7
2014-Nov-15 03:00N 51°44' W 137°05'0 0.4 1017.0 10.8
2014-Nov-15 02:00N 51°44' W 137°06'1 0.6 1017.0 10.9
2014-Nov-15 00:00N 51°43' W 137°06'0 0.3 1017.5 11.1
2014-Nov-14 23:00N 51°43' W 137°06'1 1.0 1017.8 11.1
2014-Nov-14 22:00N 51°42' W 137°07'0 0.0 1018.2 11.1
2014-Nov-14 21:00N 51°42' W 137°07'2 2.2 1018.5 11.1
2014-Nov-14 20:00N 51°41' W 137°04'1 1.0 1018.5 11.1
2014-Nov-14 19:00N 51°41' W 137°05'2 2.1 1018.3 11.1
2014-Nov-14 18:00N 51°40' W 137°03'0 0.2 1017.7 11.1
2014-Nov-14 16:00N 51°40' W 137°02'0 0.2 1017.3 11.1
2014-Nov-14 15:00N 51°39' W 137°02'1 0.9 1017.2 11.1
2014-Nov-14 14:00N 51°39' W 137°01'1 0.7 1017.4 11.2
2014-Nov-14 13:00N 51°38' W 137°01'1 1.0 1017.3 11.1
2014-Nov-14 12:00N 51°39' W 137°02'2 1.9 1017.2 11.1
2014-Nov-14 11:00N 51°37' W 137°01'2 1.8 1017.0 11.1
2014-Nov-14 10:00N 51°39' W 137°01'2 0.9 1016.6 11.0
2014-Nov-14 08:00N 51°37' W 137°01'1 0.6 1016.3 11.0
2014-Nov-14 06:00N 51°37' W 136°59'0 0.1 1015.6 11.0
2014-Nov-14 05:00N 51°37' W 136°59'1 0.7 1015.0 11.0
2014-Nov-14 04:00N 51°36' W 136°58'1 0.7 1014.5 11.0
2014-Nov-14 03:00N 51°35' W 136°59'1 1.3 1014.1 11.0
2014-Nov-14 02:00N 51°35' W 136°57'1 0.3 1013.9 11.1
2014-Nov-14 00:00N 51°34' W 136°57'1 0.5 1013.4 11.1
2014-Nov-13 22:00N 51°34' W 136°55'0 0.0 1013.0 11.0
2014-Nov-13 21:00N 51°34' W 136°55'2 1.6 1012.9 11.0
2014-Nov-13 20:00N 51°32' W 136°53'1 0.6 1013.1 11.0
2014-Nov-13 19:00N 51°32' W 136°53'1 1.1 1012.8 11.0
2014-Nov-13 18:00N 51°32' W 136°52'1 0.6 1012.4 11.0
2014-Nov-13 16:00N 51°31' W 136°50'0 0.4 1011.9 11.2
2014-Nov-13 15:00N 51°31' W 136°49'1 0.7 1011.8 11.3
2014-Nov-13 14:00N 51°31' W 136°50'1 0.7 1011.9 11.3
2014-Nov-13 13:00N 51°30' W 136°49'1 0.7 1012.1 11.3
2014-Nov-13 12:00N 51°30' W 136°48'3 3.4 1012.4 11.3
2014-Nov-13 11:00N 51°27' W 136°46'0 0.0 1012.4 11.2
2014-Nov-13 08:00N 51°27' W 136°46'   1012.8 11.1

Dump ship's entire track history